Time;durP1;ratioP1;P1;durP2;ratioP2;P2;SDS_P1;SDS_P2;PMS_P1;PMS_P2;Temp;Humidity;BMP_temperature;BMP_pressure;BME280_temperature;BME280_humidity;BME280_pressure;Samples;Min_cycle;Max_cycle;Signal;HPM_P1;HPM_P2
2022/12/29 00:01:23;;;;;;;;;;;7.60;99.90;;;7.07;100.00;96826.06;5041337;28;19963;-39
2022/12/29 00:03:49;;;;;;;;;;;7.70;99.90;;;7.11;100.00;96826.00;5040624;28;19913;-40
2022/12/29 00:06:15;;;;;;;;;;;7.70;99.90;;;7.13;100.00;96824.16;5042818;28;20602;-40
2022/12/29 00:08:40;;;;;;;;;;;7.80;99.90;;;7.14;100.00;96826.75;5042480;28;19927;-39
2022/12/29 00:11:07;;;;;;;;;;;7.80;99.90;;;7.14;100.00;96824.13;5043661;28;19917;-40
2022/12/29 00:16:17;;;;;;;;;;;7.80;99.90;;;7.22;100.00;96813.38;5043854;28;19932;-40
2022/12/29 00:18:42;;;;;;;;;;;7.90;99.90;;;7.25;100.00;96811.50;5043870;28;19924;-39
2022/12/29 00:35:10;;;;;;;;;;;8.00;99.90;;;7.35;100.00;96796.31;5043392;28;19966;-40
2022/12/29 00:45:50;;;;;;;;;;;8.10;99.90;;;7.45;100.00;96781.97;5036659;28;20446;-40
2022/12/29 00:49:30;;;;;;;;;;;8.10;99.90;;;7.51;100.00;96795.78;5040651;28;20144;-39
2022/12/29 00:51:02;;;;;;;;;;;8.10;99.90;;;7.54;100.00;96782.59;5045931;28;19924;-39
2022/12/29 00:53:27;;;;;;;;;;;8.20;99.90;;;7.56;100.00;96778.97;5043634;28;19924;-39
2022/12/29 00:55:53;;;;;;;;;;;8.20;99.90;;;7.60;100.00;96782.34;5037811;28;20372;-39
2022/12/29 00:58:18;;;;;;;;;;;8.30;99.90;;;7.59;100.00;96778.00;5044602;28;19979;-39
2022/12/29 01:00:44;;;;;;;;;;;8.20;99.90;;;7.53;100.00;96783.47;5035691;28;20021;-39
2022/12/29 01:03:10;;;;;;;;;;;8.20;99.90;;;7.56;100.00;96778.13;5044413;28;19970;-39
2022/12/29 01:05:36;;;;;;;;;;;8.20;99.90;;;7.56;100.00;96788.63;5043451;28;20279;-39
2022/12/29 01:08:02;;;;;;;;;;;8.20;99.90;;;7.57;100.00;96787.69;5042014;28;19982;-39
2022/12/29 01:10:27;;;;;;;;;;;8.20;99.90;;;7.56;100.00;96786.84;5042802;28;20507;-39
2022/12/29 01:12:53;;;;;;;;;;;8.20;99.90;;;7.60;100.00;96795.47;5038353;28;19928;-40
2022/12/29 01:15:19;;;;;;;;;;;8.20;99.90;;;7.63;100.00;96806.72;5035587;28;20057;-39
2022/12/29 01:17:44;;;;;;;;;;;8.30;99.90;;;7.64;100.00;96797.94;5041238;28;19921;-40
2022/12/29 01:20:10;;;;;;;;;;;8.30;99.90;;;7.70;100.00;96801.25;5035046;28;19921;-39
2022/12/29 01:22:36;;;;;;;;;;;8.30;99.90;;;7.74;100.00;96803.72;5036331;28;19948;-39
2022/12/29 01:25:02;;;;;;;;;;;8.30;99.90;;;7.74;100.00;96805.50;5041273;28;19967;-39
2022/12/29 01:27:28;;;;;;;;;;;8.40;99.90;;;7.75;100.00;96815.94;5041364;28;19920;-39
2022/12/29 01:29:54;;;;;;;;;;;8.40;99.90;;;7.78;100.00;96805.31;5037954;28;19920;-40
2022/12/29 01:32:19;;;;;;;;;;;8.40;99.90;;;7.81;100.00;96801.75;5033848;28;20006;-39
2022/12/29 01:34:45;;;;;;;;;;;8.40;99.90;;;7.80;100.00;96802.66;5035787;28;20023;-39
2022/12/29 01:37:11;;;;;;;;;;;8.40;99.90;;;7.77;100.00;96806.25;5041607;28;19920;-39
2022/12/29 01:39:36;;;;;;;;;;;8.40;99.90;;;7.79;100.00;96806.19;5040808;28;20023;-39
2022/12/29 01:42:02;;;;;;;;;;;8.40;99.90;;;7.77;100.00;96806.25;5039094;28;20018;-39
2022/12/29 01:45:10;;;;;;;;;;;8.40;99.90;;;7.77;100.00;96797.50;5037918;28;20027;-40
2022/12/29 01:47:43;;;;;;;;;;;8.40;99.90;;;7.73;100.00;96793.28;5027380;28;20444;-39
2022/12/29 01:50:21;;;;;;;;;;;8.40;99.90;;;7.74;100.00;96803.72;5044029;28;19951;-39
2022/12/29 01:52:51;;;;;;;;;;;8.40;99.90;;;7.73;100.00;96806.41;5016974;28;19928;-39
2022/12/29 01:55:17;;;;;;;;;;;8.40;99.90;;;7.70;100.00;96806.50;5019933;28;19920;-39
2022/12/29 01:57:46;;;;;;;;;;;8.40;99.90;;;7.70;100.00;96801.25;5037751;28;20112;-39
2022/12/29 02:00:13;;;;;;;;;;;8.40;99.90;;;7.62;100.00;96785.78;5022648;28;19955;-39
2022/12/29 02:02:41;;;;;;;;;;;8.30;99.90;;;7.64;100.00;96790.06;5042441;28;20396;-39
2022/12/29 02:05:42;;;;;;;;;;;8.30;99.90;;;7.65;100.00;96785.69;5040972;28;20172;-39
2022/12/29 02:08:09;;;;;;;;;;;8.30;99.90;;;7.68;100.00;96787.31;5040618;28;19917;-38
2022/12/29 02:10:35;;;;;;;;;;;8.30;99.90;;;7.70;100.00;96780.25;5070760;23;19932;-59
2022/12/29 02:13:01;;;;;;;;;;;8.30;99.90;;;7.71;100.00;96779.34;5056764;28;19948;-59
2022/12/29 02:15:53;;;;;;;;;;;8.30;99.90;;;7.69;100.00;96779.41;5060547;28;20391;-59
2022/12/29 02:18:27;;;;;;;;;;;8.30;99.90;;;7.69;100.00;96776.78;5060201;28;19917;-59
2022/12/29 02:21:08;;;;;;;;;;;8.30;99.90;;;7.70;100.00;96768.00;5044068;28;19917;-59
2022/12/29 02:23:55;;;;;;;;;;;8.30;99.90;;;7.70;100.00;96772.38;5041340;28;19920;-59
2022/12/29 02:26:40;;;;;;;;;;;8.30;99.90;;;7.68;100.00;96775.09;5039588;28;19923;-59
2022/12/29 02:29:48;;;;;;;;;;;8.30;99.90;;;7.65;100.00;96768.16;5032258;28;19917;-59
2022/12/29 02:32:25;;;;;;;;;;;8.30;99.90;;;7.62;100.00;96772.66;5036145;28;19924;-59
2022/12/29 02:35:13;;;;;;;;;;;8.30;99.90;;;7.59;100.00;96773.63;5034400;28;19927;-59
2022/12/29 02:37:48;;;;;;;;;;;8.20;99.90;;;7.52;100.00;96766.88;5033922;28;19924;-59
2022/12/29 02:40:39;;;;;;;;;;;8.20;99.90;;;7.54;100.00;96769.47;5030017;28;19951;-59
2022/12/29 02:43:16;;;;;;;;;;;8.20;99.90;;;7.50;100.00;96778.31;5031764;28;19956;-59
2022/12/29 02:45:45;;;;;;;;;;;8.10;99.90;;;7.49;100.00;96755.63;5029945;28;19928;-59
2022/12/29 02:48:35;;;;;;;;;;;8.10;99.90;;;7.48;100.00;96761.78;5029161;28;20296;-59
2022/12/29 02:51:32;;;;;;;;;;;8.10;99.90;;;7.48;100.00;96759.16;5034332;28;19932;-59
2022/12/29 02:56:42;;;;;;;;;;;8.10;99.90;;;7.50;100.00;96754.72;5028919;28;19924;-59
2022/12/29 02:59:08;;;;;;;;;;;8.20;99.90;;;7.56;100.00;96759.75;5036954;28;20309;-58
2022/12/29 03:02:18;;;;;;;;;;;8.20;99.90;;;7.61;100.00;96761.31;5037596;28;20327;-58
2022/12/29 03:05:04;;;;;;;;;;;8.30;99.90;;;7.65;100.00;96756.81;5033163;28;20015;-59
2022/12/29 03:07:35;;;;;;;;;;;8.30;99.90;;;7.71;100.00;96766.22;5033004;28;19924;-58
2022/12/29 03:10:15;;;;;;;;;;;8.30;99.90;;;7.73;100.00;96757.38;5036913;28;19986;-58
2022/12/29 03:18:34;;;;;;;;;;;8.40;99.90;;;7.82;100.00;96754.44;5037894;28;20399;-58
2022/12/29 03:21:05;;;;;;;;;;;8.40;99.90;;;7.92;100.00;96754.94;5029853;28;20715;-58
2022/12/29 03:23:31;;;;;;;;;;;8.50;99.90;;;8.01;100.00;96745.88;5023674;28;19917;-58
2022/12/29 03:25:58;;;;;;;;;;;8.60;99.90;;;8.10;100.00;96748.16;5032539;28;19931;-59
2022/12/29 03:28:29;;;;;;;;;;;8.70;99.90;;;8.18;100.00;96732.09;5032213;28;20209;-58
2022/12/29 03:30:55;;;;;;;;;;;8.80;99.90;;;8.27;100.00;96723.88;5035928;28;20459;-59
2022/12/29 03:33:24;;;;;;;;;;;8.90;99.90;;;8.40;100.00;96737.41;5033494;28;20346;-59
2022/12/29 03:35:51;;;;;;;;;;;9.00;99.90;;;8.51;100.00;96744.91;5035695;28;19932;-59
2022/12/29 03:38:25;;;;;;;;;;;9.10;99.90;;;8.48;100.00;96727.47;5036494;28;19932;-59
2022/12/29 03:40:57;;;;;;;;;;;9.10;99.90;;;8.64;100.00;96737.41;5037639;28;20423;-59
2022/12/29 03:43:22;;;;;;;;;;;9.20;99.90;;;8.70;100.00;96726.63;5050659;28;20521;-59
2022/12/29 03:45:48;;;;;;;;;;;9.20;99.90;;;8.81;100.00;96726.19;5031848;28;19912;-59
2022/12/29 03:48:14;;;;;;;;;;;9.40;99.90;;;8.94;100.00;96720.38;5037816;28;19921;-59
2022/12/29 03:50:40;;;;;;;;;;;9.40;99.90;;;9.01;100.00;96699.94;5037829;28;20345;-59
2022/12/29 03:53:05;;;;;;;;;;;9.50;99.90;;;9.04;100.00;96702.41;5041209;28;19912;-59
2022/12/29 03:55:31;;;;;;;;;;;9.60;99.90;;;8.92;100.00;96669.63;5032095;28;19956;-59
2022/12/29 03:57:56;;;;;;;;;;;9.60;99.90;;;9.08;100.00;96713.66;5030416;28;19935;-58
2022/12/29 04:00:22;;;;;;;;;;;9.60;99.90;;;8.99;100.00;96714.94;5030100;28;19952;-58
2022/12/29 04:02:48;;;;;;;;;;;9.50;99.90;;;8.88;100.00;96725.91;5035154;28;20300;-59
2022/12/29 04:05:13;;;;;;;;;;;9.40;99.90;;;8.70;100.00;96710.84;5034055;28;19921;-58
2022/12/29 04:07:39;;;;;;;;;;;9.40;99.90;;;8.74;100.00;96722.94;5037822;28;19924;-59
2022/12/29 04:10:05;;;;;;;;;;;9.30;99.90;;;8.70;100.00;96721.38;5039116;28;19917;-59
2022/12/29 04:12:30;;;;;;;;;;;9.20;99.90;;;8.65;100.00;96718.06;5037615;28;19917;-59
2022/12/29 04:14:56;;;;;;;;;;;9.20;99.90;;;8.53;100.00;96711.53;5045082;28;19943;-58
2022/12/29 04:17:22;;;;;;;;;;;9.10;99.90;;;8.48;100.00;96724.84;5039976;28;19920;-58
2022/12/29 04:19:47;;;;;;;;;;;9.00;99.90;;;8.43;100.00;96732.06;5037684;28;20023;-57
2022/12/29 04:22:13;;;;;;;;;;;9.00;99.90;;;8.46;100.00;96752.13;5039270;28;19921;-57
2022/12/29 04:24:38;;;;;;;;;;;9.00;99.90;;;8.65;100.00;96749.59;5044467;28;19986;-57
2022/12/29 04:27:04;;;;;;;;;;;9.10;99.90;;;8.75;100.00;96750.97;5035886;28;19946;-58
2022/12/29 04:29:30;;;;;;;;;;;9.30;99.90;;;8.82;100.00;96757.69;5038303;28;20419;-58
2022/12/29 04:31:55;;;;;;;;;;;9.30;99.90;;;8.88;100.00;96738.16;5038515;28;19967;-58
2022/12/29 04:34:21;;;;;;;;;;;9.40;99.90;;;8.97;100.00;96743.91;5033032;28;20010;-58
2022/12/29 04:36:47;;;;;;;;;;;9.50;99.90;;;9.05;100.00;96743.59;5033578;28;19921;-58
2022/12/29 04:39:12;;;;;;;;;;;9.60;99.90;;;9.14;100.00;96729.22;5034893;28;20308;-58
2022/12/29 04:41:38;;;;;;;;;;;9.60;99.90;;;9.10;100.00;96719.75;5036870;28;19920;-58
2022/12/29 04:44:03;;;;;;;;;;;9.60;99.90;;;9.00;100.00;96724.53;5041127;28;19998;-58
2022/12/29 04:46:29;;;;;;;;;;;9.50;99.90;;;8.94;100.00;96717.75;5033328;28;20458;-58
2022/12/29 04:48:55;;;;;;;;;;;9.50;99.90;;;8.87;100.00;96726.81;5041870;28;20038;-58
2022/12/29 04:51:20;;;;;;;;;;;9.40;99.90;;;8.82;100.00;96725.28;5036976;28;19927;-58
2022/12/29 04:53:46;;;;;;;;;;;9.30;99.90;;;8.87;100.00;96732.06;5042189;28;19990;-58
2022/12/29 04:56:11;;;;;;;;;;;9.30;99.90;;;8.76;100.00;96739.53;5038482;28;19925;-58
2022/12/29 04:58:37;;;;;;;;;;;9.30;99.90;;;8.77;100.00;96730.72;5037304;28;19978;-58
2022/12/29 05:01:03;;;;;;;;;;;9.30;99.90;;;8.87;100.00;96733.84;5036113;28;20025;-58
2022/12/29 05:03:28;;;;;;;;;;;9.30;99.90;;;8.83;100.00;96737.50;5040167;28;20248;-58
2022/12/29 05:05:55;;;;;;;;;;;9.30;99.90;;;8.80;100.00;96735.84;5039049;28;19920;-58
2022/12/29 05:08:20;;;;;;;;;;;9.30;99.90;;;8.76;100.00;96718.50;5040168;28;19920;-58
2022/12/29 05:10:46;;;;;;;;;;;9.30;99.90;;;8.77;100.00;96730.72;5038538;28;19928;-58
2022/12/29 05:13:12;;;;;;;;;;;9.20;99.90;;;8.72;100.00;96722.16;5036823;28;19917;-58
2022/12/29 05:15:37;;;;;;;;;;;9.20;99.90;;;8.83;100.00;96719.09;5034042;28;19999;-58
2022/12/29 05:18:03;;;;;;;;;;;9.20;99.90;;;8.79;100.00;96719.25;5045982;28;19916;-58
2022/12/29 05:20:29;;;;;;;;;;;9.30;99.90;;;8.82;100.00;96725.28;5036094;28;19950;-58
2022/12/29 05:22:54;;;;;;;;;;;9.20;99.90;;;8.78;100.00;96717.50;5034117;28;20060;-58
2022/12/29 05:25:20;;;;;;;;;;;9.20;99.90;;;8.82;100.00;96701.63;5042275;28;21972;-58
2022/12/29 05:27:45;;;;;;;;;;;9.20;99.90;;;8.70;100.00;96710.84;5036428;28;20255;-58
2022/12/29 05:30:12;;;;;;;;;;;9.20;99.90;;;8.75;100.00;96709.75;5035485;28;20011;-58
2022/12/29 05:32:37;;;;;;;;;;;9.20;99.90;;;8.71;100.00;96721.31;5032110;28;19971;-58
2022/12/29 05:35:03;;;;;;;;;;;9.20;99.90;;;8.72;100.00;96724.78;5031280;28;19929;-58
2022/12/29 05:37:29;;;;;;;;;;;9.20;99.90;;;8.75;100.00;96740.44;5034887;28;19920;-59
2022/12/29 05:39:55;;;;;;;;;;;9.20;99.90;;;8.81;100.00;96734.06;5034296;28;19927;-58
2022/12/29 05:42:20;;;;;;;;;;;9.30;99.90;;;8.78;100.00;96719.28;5031679;28;20013;-59
2022/12/29 05:44:46;;;;;;;;;;;9.30;99.90;;;8.70;100.00;96719.56;5038498;28;20265;-59
2022/12/29 05:47:12;;;;;;;;;;;9.30;99.90;;;8.68;100.00;96726.69;5039484;28;19926;-59
2022/12/29 05:49:37;;;;;;;;;;;9.20;99.90;;;8.69;100.00;96720.50;5036904;28;19923;-59
2022/12/29 05:52:03;;;;;;;;;;;9.30;99.90;;;8.77;100.00;96725.44;5035045;28;20079;-59
2022/12/29 05:54:28;;;;;;;;;;;9.30;99.90;;;8.79;100.00;96721.00;5038259;28;19921;-59
2022/12/29 05:56:54;;;;;;;;;;;9.40;99.90;;;8.88;100.00;96723.28;5033098;28;19928;-59
2022/12/29 05:59:20;;;;;;;;;;;9.40;99.90;;;9.03;100.00;96720.91;5036977;28;20003;-59
2022/12/29 06:01:45;;;;;;;;;;;9.50;99.90;;;9.12;100.00;96716.13;5039530;28;20329;-59
2022/12/29 06:04:11;;;;;;;;;;;9.60;99.90;;;9.18;100.00;96704.47;5035848;28;19917;-59
2022/12/29 06:06:36;;;;;;;;;;;9.70;99.90;;;9.20;100.00;96704.41;5039838;28;20721;-59
2022/12/29 06:09:02;;;;;;;;;;;9.70;99.90;;;9.12;100.00;96692.44;5033910;28;20407;-59
2022/12/29 06:11:28;;;;;;;;;;;9.70;99.90;;;9.05;100.00;96677.00;5036857;28;19920;-59
2022/12/29 06:13:53;;;;;;;;;;;9.60;99.90;;;8.96;100.00;96668.56;5036168;28;19916;-59
2022/12/29 06:16:19;;;;;;;;;;;9.50;99.90;;;8.82;100.00;96664.81;5037614;28;19920;-59
2022/12/29 06:18:45;;;;;;;;;;;9.40;99.90;;;8.76;100.00;96690.44;5035846;28;19967;-58
2022/12/29 06:21:10;;;;;;;;;;;9.30;99.90;;;8.68;100.00;96681.16;5033232;28;19927;-59
2022/12/29 06:23:36;;;;;;;;;;;9.20;99.90;;;8.59;100.00;96693.72;5040511;28;19913;-58
2022/12/29 06:26:02;;;;;;;;;;;9.20;99.90;;;8.58;100.00;96696.44;5037686;28;19924;-58
2022/12/29 06:28:27;;;;;;;;;;;9.10;99.90;;;8.58;100.00;96685.94;5038124;28;20529;-59
2022/12/29 06:30:53;;;;;;;;;;;9.10;99.90;;;8.60;100.00;96699.88;5036022;28;19921;-59
2022/12/29 06:33:18;;;;;;;;;;;9.10;99.90;;;8.62;100.00;96703.28;5034762;28;19921;-59
2022/12/29 06:35:45;;;;;;;;;;;9.10;99.90;;;8.62;100.00;96700.66;5030832;28;19964;-59
2022/12/29 06:38:11;;;;;;;;;;;9.10;99.90;;;8.62;100.00;96702.44;5036690;28;20013;-59
2022/12/29 06:40:36;;;;;;;;;;;9.10;99.90;;;8.73;100.00;96695.81;5041468;28;20424;-58
2022/12/29 06:43:02;;;;;;;;;;;9.10;99.90;;;8.67;100.00;96689.94;5035344;28;20147;-58
2022/12/29 06:45:28;;;;;;;;;;;9.20;99.90;;;8.64;100.00;96703.22;5041515;28;20522;-59
2022/12/29 06:47:53;;;;;;;;;;;9.20;99.90;;;8.67;100.00;96706.59;5037965;28;20031;-59
2022/12/29 06:50:19;;;;;;;;;;;9.10;99.90;;;8.62;100.00;96684.88;5038977;28;20137;-59
2022/12/29 06:52:44;;;;;;;;;;;9.20;99.90;;;8.67;100.00;96692.56;5032187;28;19956;-59
2022/12/29 06:55:10;;;;;;;;;;;9.20;99.90;;;8.62;100.00;96678.78;5036694;28;20295;-59
2022/12/29 06:57:36;;;;;;;;;;;9.10;99.90;;;8.54;100.00;96685.19;5034036;28;20432;-58
2022/12/29 07:00:03;;;;;;;;;;;9.10;99.90;;;8.59;100.00;96688.47;5032294;28;19955;-58
2022/12/29 07:02:28;;;;;;;;;;;9.10;99.90;;;8.50;100.00;96696.72;5030168;28;19925;-58
2022/12/29 07:04:54;;;;;;;;;;;9.10;99.90;;;8.40;100.00;96693.59;5028395;28;20091;-58
2022/12/29 07:07:20;;;;;;;;;;;8.90;99.90;;;8.27;100.00;96691.50;5029165;28;20003;-58
2022/12/29 07:09:46;;;;;;;;;;;8.90;99.90;;;8.18;100.00;96693.59;5027561;28;20283;-58
2022/12/29 07:12:11;;;;;;;;;;;8.80;99.90;;;8.09;100.00;96699.16;5036996;28;20192;-58
2022/12/29 07:14:37;;;;;;;;;;;8.70;99.90;;;8.00;100.00;96694.28;5039665;28;20340;-58
2022/12/29 07:17:06;;;;;;;;;;;8.60;99.90;;;7.92;100.00;96697.19;5040106;28;19921;-58
2022/12/29 07:19:32;;;;;;;;;;;8.50;99.90;;;7.88;100.00;96705.22;5037201;28;19978;-58
2022/12/29 07:21:58;;;;;;;;;;;8.40;99.90;;;7.81;100.00;96699.38;5036515;28;20190;-58
2022/12/29 07:24:25;;;;;;;;;;;8.40;99.90;;;7.74;100.00;96701.34;5038079;28;19920;-58
2022/12/29 07:26:51;;;;;;;;;;;8.40;99.90;;;7.72;100.00;96700.56;5035751;28;19974;-59
2022/12/29 07:29:17;;;;;;;;;;;8.30;99.90;;;7.71;100.00;96698.84;5028228;28;19924;-58
2022/12/29 07:31:42;;;;;;;;;;;8.30;99.90;;;7.71;100.00;96708.50;5035891;28;19917;-59
2022/12/29 07:34:08;;;;;;;;;;;8.30;99.90;;;7.75;100.00;96716.22;5041259;28;20392;-58
2022/12/29 07:36:34;;;;;;;;;;;8.30;99.90;;;7.73;100.00;96712.75;5031905;28;19952;-58
2022/12/29 07:38:59;;;;;;;;;;;8.30;99.90;;;7.70;100.00;96706.75;5028547;28;20136;-58
2022/12/29 07:41:25;;;;;;;;;;;8.30;99.90;;;7.66;100.00;96708.63;5040241;28;19920;-58
2022/12/29 07:43:51;;;;;;;;;;;8.30;99.90;;;7.45;100.00;96682.28;5037154;28;20306;-58
2022/12/29 07:46:16;;;;;;;;;;;8.20;99.90;;;7.53;100.00;96704.75;5038048;28;20612;-59
2022/12/29 07:48:42;;;;;;;;;;;8.10;99.90;;;7.47;100.00;96705.00;5039001;28;22166;-58
2022/12/29 07:51:07;;;;;;;;;;;8.10;99.90;;;7.43;100.00;96720.00;5044743;28;19917;-59
2022/12/29 07:53:33;;;;;;;;;;;8.00;99.90;;;7.43;100.00;96710.34;5048259;28;19917;-58
2022/12/29 07:55:59;;;;;;;;;;;8.00;99.90;;;7.49;100.00;96705.78;5043282;28;19923;-59
2022/12/29 07:58:24;;;;;;;;;;;8.10;99.90;;;7.56;100.00;96709.91;5039971;28;19925;-59
2022/12/29 08:00:56;;;;;;;;;;;8.10;99.90;;;7.57;100.00;96701.09;5035747;28;20431;-58
2022/12/29 08:03:22;;;;;;;;;;;8.10;99.90;;;7.58;100.00;96706.31;5048811;28;19969;-58
2022/12/29 08:05:48;;;;;;;;;;;8.20;99.90;;;7.63;100.00;96721.91;5041581;28;19917;-58
2022/12/29 08:08:14;;;;;;;;;;;8.20;99.90;;;7.67;100.00;96723.50;5047514;28;19916;-60
2022/12/29 08:10:39;;;;;;;;;;;8.20;99.90;;;7.69;100.00;96721.66;5065210;22;19929;-43
2022/12/29 08:13:05;;;;;;;;;;;8.20;99.90;;;7.72;100.00;96732.06;5060725;28;19936;-41
2022/12/29 08:15:30;;;;;;;;;;;8.30;99.90;;;7.74;100.00;96727.59;5058557;28;19967;-42
2022/12/29 08:17:56;;;;;;;;;;;8.30;99.90;;;7.78;100.00;96744.94;5060957;28;20022;-41
2022/12/29 08:20:22;;;;;;;;;;;8.30;99.90;;;7.84;100.00;96736.88;5055038;28;20434;-41
2022/12/29 08:22:47;;;;;;;;;;;8.40;99.90;;;7.88;100.00;96742.88;5066371;28;19978;-42
2022/12/29 08:25:13;;;;;;;;;;;8.50;99.90;;;7.92;100.00;96739.19;5064536;28;19920;-42
2022/12/29 08:27:39;;;;;;;;;;;8.50;99.90;;;7.97;100.00;96736.41;5067509;28;19919;-39
2022/12/29 08:30:05;;;;;;;;;;;8.50;99.90;;;8.01;100.00;96738.00;5071883;28;20363;-39
2022/12/29 08:32:31;;;;;;;;;;;8.50;99.90;;;8.02;100.00;96740.56;5063260;28;19916;-43
2022/12/29 08:34:57;;;;;;;;;;;8.60;99.90;;;8.01;100.00;96736.22;5062947;28;19927;-44
2022/12/29 08:37:22;;;;;;;;;;;8.60;99.90;;;8.01;100.00;96725.72;5069400;28;19920;-42
2022/12/29 08:39:48;;;;;;;;;;;8.60;99.90;;;8.02;100.00;96726.56;5068463;28;20067;-43
2022/12/29 08:42:14;;;;;;;;;;;8.60;99.90;;;8.00;100.00;96712.66;5069017;28;19912;-43
2022/12/29 08:44:39;;;;;;;;;;;8.60;99.90;;;7.99;100.00;96724.09;5066147;28;19913;-42
2022/12/29 08:47:05;;;;;;;;;;;8.50;99.90;;;7.87;100.00;96703.53;5072067;28;19982;-41
2022/12/29 08:49:32;;;;;;;;;;;8.60;99.90;;;8.00;100.00;96731.91;5068110;28;19928;-42
2022/12/29 08:51:58;;;;;;;;;;;8.50;99.90;;;8.03;100.00;96731.78;5063408;28;19962;-43
2022/12/29 08:54:24;;;;;;;;;;;8.60;99.90;;;8.07;100.00;96732.50;5063846;28;19920;-42
2022/12/29 08:56:50;;;;;;;;;;;8.60;99.90;;;8.09;100.00;96717.53;5068666;28;19983;-41
2022/12/29 08:59:15;;;;;;;;;;;8.70;99.90;;;8.28;100.00;96730.00;5069497;28;19920;-42
2022/12/29 09:01:41;;;;;;;;;;;8.80;99.90;;;8.40;100.00;96733.00;5066131;28;19912;-42
2022/12/29 09:04:07;;;;;;;;;;;8.90;99.90;;;8.49;100.00;96736.22;5068130;28;19913;-42
2022/12/29 09:06:33;;;;;;;;;;;9.00;99.90;;;8.56;100.00;96748.19;5072513;28;19916;-42
2022/12/29 09:08:58;;;;;;;;;;;9.10;99.90;;;8.60;100.00;96748.03;5065465;28;19919;-41
2022/12/29 09:11:25;;;;;;;;;;;9.20;99.90;;;8.76;100.00;96764.03;5069447;28;20077;-42
2022/12/29 09:13:52;;;;;;;;;;;9.30;99.90;;;9.03;100.00;96760.38;5067876;28;19912;-42
2022/12/29 09:16:17;;;;;;;;;;;9.50;99.90;;;9.27;100.00;96767.22;5068892;28;20263;-41
2022/12/29 09:18:43;;;;;;;;;;;9.80;99.90;;;9.46;100.00;96756.78;5064758;28;19920;-41
2022/12/29 09:21:10;;;;;;;;;;;10.00;99.90;;;9.65;100.00;96770.00;5068987;28;19916;-42
2022/12/29 09:23:36;;;;;;;;;;;10.20;99.90;;;9.83;100.00;96778.03;5060575;28;19920;-42
2022/12/29 09:26:03;;;;;;;;;;;10.40;99.90;;;10.03;100.00;96770.13;5062155;28;19912;-43
2022/12/29 09:28:29;;;;;;;;;;;10.60;99.90;;;10.21;100.00;96771.06;5063298;28;19920;-42
2022/12/29 09:30:57;;;;;;;;;;;10.80;99.90;;;10.39;100.00;96769.41;5063939;28;19920;-42
2022/12/29 09:33:23;;;;;;;;;;;11.00;99.90;;;10.50;99.53;96764.47;5060335;28;19967;-42
2022/12/29 09:35:54;;;;;;;;;;;11.10;99.90;;;10.72;98.77;96781.91;5062335;28;19944;-43
2022/12/29 09:38:20;;;;;;;;;;;11.30;99.90;;;10.94;99.73;96783.53;5064626;28;19951;-43
2022/12/29 09:40:50;;;;;;;;;;;11.50;99.90;;;11.04;97.58;96787.44;5065818;28;19920;-43
2022/12/29 09:43:38;;;;;;;;;;;11.60;99.90;;;11.12;96.51;96776.50;5063255;28;19917;-42
2022/12/29 09:46:06;;;;;;;;;;;11.70;99.90;;;11.25;93.61;96778.47;5064676;28;19931;-42
2022/12/29 09:48:35;;;;;;;;;;;11.80;99.90;;;11.42;90.33;96784.69;5065823;28;19920;-42
2022/12/29 09:51:03;;;;;;;;;;;12.00;99.90;;;11.59;86.20;96784.69;5063577;28;20002;-42
2022/12/29 09:53:37;;;;;;;;;;;12.10;99.90;;;11.71;85.36;96788.50;5062852;28;20017;-43
2022/12/29 09:56:04;;;;;;;;;;;12.30;99.90;;;11.90;86.58;96777.88;5063273;28;19920;-42
2022/12/29 09:58:44;;;;;;;;;;;12.50;99.90;;;12.00;82.24;96775.59;5064262;28;19966;-42
2022/12/29 10:01:19;;;;;;;;;;;12.60;99.90;;;12.07;81.70;96784.06;5060668;28;19916;-42
2022/12/29 10:03:48;;;;;;;;;;;12.60;99.90;;;12.06;82.22;96775.28;5063773;28;19916;-42
2022/12/29 10:06:19;;;;;;;;;;;12.60;99.90;;;11.98;81.61;96782.75;5060460;28;20251;-44
2022/12/29 10:08:56;;;;;;;;;;;12.50;99.90;;;11.90;81.68;96774.31;5063019;28;20151;-42
2022/12/29 10:11:47;;;;;;;;;;;12.50;99.90;;;11.84;83.10;96781.66;5064015;28;19978;-43
2022/12/29 10:14:15;;;;;;;;;;;12.40;99.90;;;11.81;82.45;96781.81;5063102;28;19912;-42
2022/12/29 10:17:13;;;;;;;;;;;12.40;99.90;;;11.74;86.80;96771.66;5066133;28;20099;-42
2022/12/29 10:20:16;;;;;;;;;;;12.30;99.90;;;11.80;81.61;96771.31;5060527;28;19923;-44
2022/12/29 10:23:21;;;;;;;;;;;12.30;99.90;;;11.85;80.63;96778.06;5062129;28;19912;-43
2022/12/29 10:25:47;;;;;;;;;;;12.40;99.90;;;11.89;81.71;96778.75;5065381;28;19917;-43
2022/12/29 10:28:22;;;;;;;;;;;12.40;99.90;;;11.98;81.51;96782.75;5062206;28;20004;-43
2022/12/29 10:30:49;;;;;;;;;;;12.50;99.90;;;11.95;81.42;96783.78;5064462;28;20011;-43
2022/12/29 10:33:21;;;;;;;;;;;12.50;99.90;;;11.98;83.36;96788.03;5061283;28;19951;-42
2022/12/29 10:35:47;;;;;;;;;;;12.50;99.90;;;12.04;79.62;96774.47;5064274;28;19978;-43
2022/12/29 10:38:28;;;;;;;;;;;12.60;99.90;;;12.17;80.50;96783.47;5063020;28;19920;-43
2022/12/29 10:40:58;;;;;;;;;;;12.60;99.90;;;12.32;79.64;96781.81;5078765;28;20384;-43
2022/12/29 10:43:50;;;;;;;;;;;12.80;99.90;;;12.46;79.91;96782.88;5060739;28;19932;-44
2022/12/29 10:46:21;;;;;;;;;;;13.00;99.90;;;12.68;78.95;96777.25;5054319;28;20033;-43
2022/12/29 10:48:47;;;;;;;;;;;13.20;99.90;;;12.68;76.47;96775.44;5063886;28;19916;-41
2022/12/29 10:51:24;;;;;;;;;;;13.30;99.90;;;12.74;77.15;96771.59;5061639;28;20302;-43
2022/12/29 10:54:15;;;;;;;;;;;13.30;99.90;;;12.72;77.45;96781.41;5060415;28;19916;-43
2022/12/29 10:56:47;;;;;;;;;;;13.30;99.90;;;12.67;77.37;96765.81;5062122;28;20392;-45
2022/12/29 10:59:22;;;;;;;;;;;13.30;99.90;;;12.79;75.96;96785.44;5061018;28;19922;-43
2022/12/29 11:02:07;;;;;;;;;;;13.30;99.90;;;12.90;74.43;96784.81;5062690;28;19913;-43
2022/12/29 11:04:35;;;;;;;;;;;13.40;99.90;;;12.86;73.50;96788.59;5064197;28;20098;-46
2022/12/29 11:07:01;;;;;;;;;;;13.50;99.90;;;12.86;75.43;96780.66;5064061;28;20276;-44
2022/12/29 11:09:31;;;;;;;;;;;13.40;99.90;;;12.79;74.59;96781.00;5062614;28;19916;-46
2022/12/29 11:11:56;;;;;;;;;;;13.40;99.90;;;12.81;74.54;96772.97;5063279;28;19920;-43
2022/12/29 11:14:29;;;;;;;;;;;13.40;99.90;;;12.79;78.83;96778.38;5062040;28;19916;-43
2022/12/29 11:17:03;;;;;;;;;;;13.40;99.90;;;12.84;77.03;96785.19;5064068;28;20011;-45
2022/12/29 11:19:30;;;;;;;;;;;13.40;99.90;;;12.85;81.39;96786.88;5064967;28;19959;-45
2022/12/29 11:22:23;;;;;;;;;;;13.40;99.90;;;12.89;79.55;96793.72;5064483;28;19973;-45
2022/12/29 11:24:50;;;;;;;;;;;13.40;99.90;;;12.91;80.31;96782.09;5063488;28;19920;-43
2022/12/29 11:27:17;;;;;;;;;;;13.40;99.90;;;12.81;77.07;96786.19;5062940;28;20422;-44
2022/12/29 11:29:45;;;;;;;;;;;13.40;99.90;;;12.77;74.88;96780.22;5065721;28;19919;-43
2022/12/29 11:32:31;;;;;;;;;;;13.40;99.90;;;12.79;75.38;96780.13;5063726;28;19913;-43
2022/12/29 11:34:58;;;;;;;;;;;13.30;99.90;;;12.78;75.31;96794.31;5064137;28;21031;-46
2022/12/29 11:37:30;;;;;;;;;;;13.30;99.90;;;12.69;73.60;96789.53;5063214;28;19968;-43
2022/12/29 11:40:05;;;;;;;;;;;13.30;99.90;;;12.58;75.50;96790.97;5063133;28;20442;-47
2022/12/29 11:42:40;;;;;;;;;;;13.10;99.90;;;12.45;77.18;96797.84;5064124;28;19920;-46
2022/12/29 11:45:23;;;;;;;;;;;13.00;99.90;;;12.21;81.61;96792.09;5058639;28;20307;-43
2022/12/29 11:47:51;;;;;;;;;;;12.80;99.90;;;12.11;84.75;96788.22;5059389;28;19912;-43
2022/12/29 11:50:20;;;;;;;;;;;12.70;99.90;;;11.98;97.08;96788.88;5063894;28;19924;-42
2022/12/29 11:52:46;;;;;;;;;;;12.60;99.90;;;11.83;99.23;96787.84;5074139;28;19916;-42
2022/12/29 11:55:24;;;;;;;;;;;12.40;99.90;;;11.73;100.00;96801.63;5059697;28;19924;-43
2022/12/29 11:57:50;;;;;;;;;;;12.30;99.90;;;11.57;100.00;96789.19;5062460;28;20024;-42
2022/12/29 12:00:21;;;;;;;;;;;12.20;99.90;;;11.54;100.00;96801.69;5060118;28;19928;-43
2022/12/29 12:02:51;;;;;;;;;;;12.10;99.90;;;11.49;100.00;96790.53;5063353;28;19927;-43
2022/12/29 12:05:22;;;;;;;;;;;12.00;99.90;;;11.42;100.00;96787.34;5060228;28;19920;-43
2022/12/29 12:07:54;;;;;;;;;;;11.90;99.90;;;11.34;100.00;96784.22;5067942;28;19913;-42